Latest Weather Observations for Bairnsdale

IDV60801

Issued at 4:02 pm EDT Monday 2 March 2015 (issued every 30 minutes, with the page automatically refreshed every 10 minutes)

About weather observations | Map of weather stations | Latest weather observations for VIC | Other Formats
Station Details ID: 085279 Name: BAIRNSDALE AIRPORT Lat: -37.88 Lon: 147.57 Height: 49.4 m
Data from the previous 72 hours. | See also: Recent months at Bairnsdale
Date/Time
EDT
Temp
°C
App
Temp
°C
Dew
Point
Rel
Hum
%
Delta-T
°C
Wind Press
QNH
hPa
Press
MSL
hPa
Rain
since 9 am
mm
Dir
 
Spd
km/h
Gust
km/h
Spd
kts
Gust
kts
02/04:00pm 19.7 16.1 12.0 61 4.3 E 22 28 12 15 1015.0 1014.9 0.0
02/03:30pm 19.9 16.6 11.7 59 4.5 ESE 20 28 11 15 1015.1 1015.0 0.0
02/03:00pm 20.2 16.0 11.1 56 5.0 SE 24 32 13 17 1015.7 1015.6 0.0
02/02:30pm 21.0 17.5 12.2 57 5.0 ESE 22 28 12 15 1015.7 1015.6 0.0
02/02:00pm 21.6 18.6 12.5 56 5.2 ESE 20 28 11 15 1015.7 1015.6 0.0
02/01:30pm 21.7 19.4 11.7 53 5.6 ESE 15 28 8 15 1016.1 1016.0 0.0
02/01:00pm 21.1 20.0 10.6 51 5.7 NNE 7 13 4 7 1016.6 1016.5 0.0
02/12:30pm 20.4 18.4 10.2 52 5.5 NE 11 19 6 10 1017.1 1017.0 0.0
02/12:00pm 18.9 16.8 9.9 56 4.8 E 11 19 6 10 1017.9 1017.8 0.0
02/11:30am 19.0 17.2 10.8 59 4.5 NNE 11 19 6 10 1018.2 1018.1 0.0
02/11:00am 18.3 16.5 10.7 61 4.1 ENE 11 17 6 9 1018.5 1018.4 0.0
02/10:30am 18.0 15.4 10.6 62 4.0 ENE 15 20 8 11 1018.6 1018.5 0.0
02/10:00am 17.4 16.2 10.3 63 3.8 SE 7 13 4 7 1018.6 1018.5 0.0
02/09:30am 16.0 15.3 10.1 68 3.1 NE 4 7 2 4 1018.7 1018.6 0.0
02/08:30am 11.9 12.1 11.7 99 0.1 NNW 2 6 1 3 1019.1 1019.0 0.0
02/08:00am 10.8 9.9 10.6 99 0.1 WNW 6 9 3 5 1019.1 1019.0 0.0
02/07:30am 9.0 7.1 8.9 99 0.0 NW 9 9 5 5 1019.1 1019.0 0.0
02/07:00am 8.3 6.5 8.0 98 0.1 N 7 9 4 5 1019.3 1019.2 0.0
02/06:30am 8.3 6.1 7.9 97 0.2 NW 9 11 5 6 1018.8 1018.7 0.0
02/05:30am 8.1 5.7 7.2 94 0.4 NW 9 13 5 7 1018.7 1018.6 0.0
02/05:00am 8.7 6.1 7.6 93 0.5 WNW 11 13 6 7 1018.7 1018.6 0.0
02/04:30am 9.3 7.5 7.9 91 0.7 WNW 7 9 4 5 1018.8 1018.7 0.0
02/04:00am 9.6 7.1 8.4 92 0.6 WSW 11 13 6 7 1018.9 1018.8 0.0
02/03:30am 9.1 6.5 7.7 91 0.7 NW 11 13 6 7 1018.5 1018.4 0.0
02/03:00am 10.3 8.1 9.2 93 0.5 WNW 11 13 6 7 1018.7 1018.6 0.0
02/02:30am 10.4 8.6 9.5 94 0.5 NW 9 11 5 6 1018.4 1018.3 0.0
02/02:00am 9.6 7.5 8.4 92 0.6 NW 9 11 5 6 1018.4 1018.3 0.0
02/01:30am 9.9 7.9 8.7 92 0.6 NW 9 11 5 6 1018.6 1018.5 0.0
02/01:00am 10.1 7.7 8.5 90 0.8 NW 11 13 6 7 1018.6 1018.5 0.0
02/12:30am 10.7 8.4 9.0 89 0.8 NW 11 13 6 7 1018.4 1018.3 0.0
02/12:00am 10.2 8.1 8.1 87 1.0 NW 9 11 5 6 1018.2 1018.1 0.0
 
Date/Time
EDT
Temp
°C
App
Temp
°C
Dew
Point
Rel
Hum
%
Delta-T
°C
Wind Press
QNH
hPa
Press
MSL
hPa
Rain
since 9 am
mm
Dir
 
Spd
km/h
Gust
km/h
Spd
kts
Gust
kts
01/11:30pm 11.0 8.9 8.4 84 1.3 NW 9 11 5 6 1018.0 1017.9 0.0
01/11:00pm 12.5 10.6 9.1 80 1.7 WSW 9 11 5 6 1017.9 1017.8 0.0
01/10:30pm 12.4 10.5 8.9 79 1.8 WSW 9 13 5 7 1018.0 1017.9 0.0
01/10:00pm 13.9 11.0 9.5 75 2.3 SW 15 20 8 11 1018.0 1017.9 0.0
01/09:30pm 13.6 10.9 9.1 74 2.3 SW 13 17 7 9 1017.9 1017.8 0.0
01/09:00pm 14.0 11.1 9.6 75 2.3 SSW 15 19 8 10 1017.1 1017.0 0.0
01/08:30pm 14.7 12.9 10.9 78 2.0 SSW 11 13 6 7 1016.8 1016.7 0.0
01/08:00pm 16.8 13.8 11.9 73 2.7 S 19 24 10 13 1016.6 1016.5 0.0
01/07:30pm 17.5 13.5 11.8 69 3.1 S 24 33 13 18 1016.1 1016.0 0.0
01/07:00pm 18.2 14.0 11.0 63 3.9 S 24 32 13 17 1015.9 1015.8 0.0
01/06:30pm 19.0 14.6 11.6 62 4.1 S 26 37 14 20 1015.6 1015.5 0.0
01/06:00pm 19.5 15.0 11.3 59 4.5 S 26 35 14 19 1015.0 1014.9 0.0
01/05:30pm 20.0 15.4 11.2 57 4.8 SSW 26 37 14 20 1014.6 1014.5 0.0
01/05:00pm 20.5 15.0 12.0 58 4.8 S 32 39 17 21 1014.2 1014.1 0.0
01/04:30pm 21.1 15.5 11.4 54 5.4 SSW 32 41 17 22 1013.9 1013.8 0.0
01/04:00pm 21.3 17.2 11.6 54 5.4 SSE 24 32 13 17 1013.3 1013.2 0.0
01/03:30pm 20.6 16.4 11.0 54 5.3 SSE 24 32 13 17 1013.1 1013.0 0.0
01/03:00pm 20.9 16.1 8.9 46 6.4 SW 24 33 13 18 1013.3 1013.2 0.0
01/02:30pm 20.9 15.3 8.9 46 6.4 SW 28 41 15 22 1013.0 1012.9 0.0
01/02:00pm 22.0 17.6 10.5 48 6.3 SW 24 33 13 18 1012.8 1012.7 0.0
01/01:30pm 20.9 16.4 10.1 50 5.8 SSW 24 32 13 17 1012.5 1012.4 0.0
01/01:00pm 21.2 17.0 11.0 52 5.6 SW 24 33 13 18 1012.4 1012.3 0.0
01/12:30pm 21.1 16.9 11.2 53 5.5 WSW 24 33 13 18 1012.2 1012.1 0.0
01/12:00pm 20.0 15.7 10.7 55 5.1 WSW 24 39 13 21 1012.1 1012.0 0.0
01/11:30am 19.7 15.9 11.2 58 4.7 WSW 22 35 12 19 1012.0 1011.9 0.0
01/11:00am 18.8 15.0 12.3 66 3.6 WSW 24 33 13 18 1011.8 1011.7 0.0
01/10:30am 18.1 15.1 12.5 70 3.1 WSW 20 28 11 15 1011.3 1011.1 0.0
01/10:00am 17.0 14.1 12.9 77 2.3 W 20 28 11 15 1010.8 1010.6 0.0
01/09:30am 16.3 13.6 13.0 81 1.8 W 19 26 10 14 1010.7 1010.5 0.0
01/09:00am 16.0 14.0 14.0 88 1.1 W 17 20 9 11 1010.1 1009.9 3.2
01/08:30am 15.5 14.1 14.4 93 0.6 W 15 19 8 10 1009.6 1009.4 3.2
01/08:00am 15.2 14.0 13.9 92 0.7 WSW 13 20 7 11 1008.8 1008.6 3.2
01/07:30am 15.2 12.3 14.1 93 0.6 WSW 22 35 12 19 1008.2 1008.1 3.2
01/07:00am 15.6 11.5 15.0 96 0.3 SW 30 39 16 21 1007.0 1006.9 3.2
01/06:39am 15.7 11.4 15.5 99 0.1 SW 32 52 17 28 1006.3 1006.2 3.2
01/06:38am 15.6 11.3 15.4 99 0.1 SW 32 52 17 28 1006.2 1006.1 3.2
01/06:30am 15.9 11.7 15.7 99 0.1 SW 32 39 17 21 1005.9 1005.8 3.2
01/06:13am 16.2 11.9 16.0 99 0.1 SW 33 52 18 28 1005.6 1005.5 3.0
01/06:00am 17.0 13.6 16.8 99 0.1 SW 30 44 16 24 1005.2 1005.1 2.8
01/05:55am 17.4 15.7 17.2 99 0.1 WSW 22 44 12 24 1005.0 1004.9 2.8
01/05:52am 18.1 17.3 18.1 100 0.0 W 19 26 10 14 1004.8 1004.7 2.8
01/05:30am 18.0 17.6 18.0 100 0.0 WSW 17 24 9 13 1004.3 1004.2 2.8
01/05:00am 17.7 17.2 17.7 100 0.0 SW 17 22 9 12 1003.5 1003.4 2.4
01/04:30am 18.0 19.1 18.0 100 0.0 ESE 9 13 5 7 1002.9 1002.8 2.4
01/04:00am 18.0 18.0 18.0 100 0.0 SSW 15 20 8 11 1002.4 1002.3 2.4
01/03:30am 18.0 19.0 17.8 99 0.1 ENE 9 13 5 7 1002.8 1002.7 2.4
01/03:00am 18.1 19.6 17.5 96 0.4 WNW 6 9 3 5 1003.5 1003.4 0.8
01/02:30am 18.4 19.4 16.9 91 0.9 NW 7 9 4 5 1002.9 1002.8 0.6
01/02:00am 19.0 16.5 17.0 88 1.2 SW 26 35 14 19 1004.1 1004.0 0.0
01/01:30am 20.4 17.7 16.6 79 2.3 SW 26 37 14 20 1004.2 1004.1 0.0
01/01:00am 21.3 17.2 16.0 72 3.2 SW 32 39 17 21 1003.6 1003.5 0.0
01/12:37am 21.9 16.4 15.7 68 3.7 SW 39 57 21 31 1003.9 1003.8 0.0
01/12:30am 22.1 15.6 15.5 66 4.0 WSW 44 57 24 31 1003.9 1003.8 0.0
01/12:00am 23.3 16.9 15.4 61 4.8 WSW 43 67 23 36 1003.7 1003.6 0.0
 
Date/Time
EDT
Temp
°C
App
Temp
°C
Dew
Point
Rel
Hum
%
Delta-T
°C
Wind Press
QNH
hPa
Press
MSL
hPa
Rain
since 9 am
mm
Dir
 
Spd
km/h
Gust
km/h
Spd
kts
Gust
kts
28/11:42pm 24.0 19.1 14.4 55 5.7 WSW 33 56 18 30 1002.8 1002.7 0.0
28/11:30pm 23.9 20.2 15.1 58 5.3 W 28 44 15 24 1002.6 1002.5 0.0
28/11:25pm 22.4 21.4 16.7 70 3.5 N 17 39 9 21 1002.4 1002.3 0.0
28/11:00pm 21.8 21.4 17.2 75 2.8 ENE 15 17 8 9 1000.5 1000.4 0.0
28/10:30pm 21.8 21.4 17.2 75 2.8 ENE 15 19 8 10 1000.9 1000.8 0.0
28/10:00pm 21.7 21.3 18.1 80 2.3 ENE 17 22 9 12 1001.6 1001.5 0.0
28/09:30pm 22.3 22.1 18.5 79 2.4 ENE 17 22 9 12 1002.3 1002.2 0.0
28/09:00pm 21.9 21.9 18.1 79 2.4 ENE 15 22 8 12 1002.5 1002.4 0.0
28/08:30pm 22.1 21.6 17.9 77 2.6 ENE 17 20 9 11 1002.9 1002.8 0.0
28/08:00pm 22.6 22.1 17.9 75 2.9 ENE 17 22 9 12 1003.1 1003.0 0.0
28/07:30pm 23.0 23.5 18.3 75 3.0 E 13 17 7 9 1003.2 1003.1 0.0
28/07:00pm 23.4 24.6 17.4 69 3.7 E 7 13 4 7 1003.7 1003.6 0.0
28/06:30pm 24.1 24.2 17.4 66 4.2 E 13 19 7 10 1003.6 1003.5 0.0
28/06:00pm 25.9 25.9 17.3 59 5.4 ESE 13 17 7 9 1004.0 1003.9 0.0
28/05:30pm 27.8 29.4 14.8 45 7.9 CALM 0 11 0 6 1004.0 1003.9 0.0
28/05:00pm 27.7 28.7 13.3 41 8.5 CALM 0 0 0 0 1004.2 1004.1 0.0
28/04:30pm 27.4 29.1 15.1 47 7.5 CALM 0 0 0 0 1004.3 1004.2 0.0
28/04:00pm 26.3 27.4 16.5 54 6.1 E 6 7 3 4 1004.5 1004.4 0.0
28/03:30pm 25.9 25.4 15.9 54 6.1 SSW 13 19 7 10 1004.8 1004.7 0.0
28/03:00pm 27.9 26.4 11.9 37 9.3 NW 11 17 6 9 1004.9 1004.8 0.0
28/02:30pm 29.0 25.3 10.2 31 10.6 NW 20 28 11 15 1005.0 1004.9 0.0
28/02:00pm 30.7 27.2 10.1 28 11.8 NNW 19 26 10 14 1004.8 1004.7 0.0
28/01:30pm 28.8 27.0 12.2 35 9.7 N 13 20 7 11 1005.0 1004.9 0.0
28/01:00pm 27.5 27.7 15.8 48 7.2 NW 9 13 5 7 1005.3 1005.2 0.0
28/12:30pm 26.0 25.6 16.3 55 6.0 NNW 13 17 7 9 1005.7 1005.6 0.0
28/12:00pm 24.4 24.0 16.1 60 5.1 NNW 13 17 7 9 1006.3 1006.2 0.0
28/11:30am 22.9 22.2 16.4 67 4.0 N 15 20 8 11 1006.6 1006.5 0.0
28/11:00am 21.2 21.2 16.2 73 3.0 NW 11 15 6 8 1007.4 1007.3 0.0
28/10:30am 20.1 21.7 15.9 77 2.5 NW 2 7 1 4 1007.4 1007.3 0.0
28/10:00am 19.6 20.2 15.9 79 2.2 NE 7 9 4 5 1007.4 1007.3 0.0
28/09:30am 18.4 19.5 16.6 89 1.1 E 6 9 3 5 1007.4 1007.3 0.0
28/09:00am 17.8 18.5 17.0 95 0.5 NE 9 13 5 7 1007.6 1007.5 0.0
28/08:30am 17.3 18.0 17.1 99 0.1 ENE 9 13 5 7 1007.5 1007.4 0.0
28/08:00am 16.6 16.4 16.6 100 0.0 ENE 13 17 7 9 1007.1 1007.0 0.0
28/07:30am 16.2 16.2 16.2 100 0.0 ENE 11 15 6 8 1007.4 1007.3 0.0
28/07:00am 15.8 16.0 15.8 100 0.0 NE 9 11 5 6 1007.8 1007.7 0.0
28/06:30am 15.7 17.2 15.7 100 0.0 ENE 2 7 1 4 1008.2 1008.1 0.0
28/06:00am 15.4 17.2 15.4 100 0.0 CALM 0 0 0 0 1008.3 1008.2 0.0
28/05:30am 15.2 16.8 15.0 99 0.1 CALM 0 0 0 0 1008.7 1008.5 0.0
28/05:00am 15.9 17.5 15.9 100 0.0 NNE 2 9 1 5 1008.3 1008.2 0.0
28/04:30am 15.6 16.2 15.4 99 0.1 N 6 6 3 3 1008.8 1008.6 0.0
28/04:00am 16.0 17.2 15.8 99 0.1 NW 4 7 2 4 1009.2 1009.0 0.0
28/03:40am 16.2 17.1 16.2 100 0.0 NW 6 7 3 4 1009.4 1009.2 0.0
28/03:30am 16.1 16.8 16.1 100 0.0 NW 7 9 4 5 1009.8 1009.6 0.0
28/03:28am 16.1 16.8 16.1 100 0.0 NW 7 9 4 5 1009.8 1009.6 0.0
28/03:00am 16.0 16.8 15.8 99 0.1 NNW 6 7 3 4 1009.8 1009.6 0.0
28/02:30am 16.0 16.2 15.8 99 0.1 NW 9 11 5 6 1010.3 1010.1 0.0
28/02:00am 15.9 16.6 15.7 99 0.1 NW 6 7 3 4 1010.4 1010.2 0.0
28/01:30am 16.0 16.8 15.8 99 0.1 SW 6 7 3 4 1010.7 1010.5 0.0
28/01:00am 15.8 15.9 15.6 99 0.1 SSW 9 9 5 5 1011.0 1010.8 0.0
28/12:30am 15.9 16.1 15.7 99 0.1 SSW 9 11 5 6 1011.0 1010.8 0.0
28/12:17am 15.8 15.9 15.6 99 0.1 SSW 9 9 5 5 1010.9 1010.7 0.0
28/12:00am 15.8 15.9 15.6 99 0.1 SSW 9 9 5 5 1011.0 1010.8 0.0
 
Date/Time
EDT
Temp
°C
App
Temp
°C
Dew
Point
Rel
Hum
%
Delta-T
°C
Wind Press
QNH
hPa
Press
MSL
hPa
Rain
since 9 am
mm
Dir
 
Spd
km/h
Gust
km/h
Spd
kts
Gust
kts
27/11:56pm 15.8 15.9 15.6 99 0.1 SSW 9 11 5 6 1011.0 1010.8 0.0
27/11:30pm 15.4 15.2 14.8 96 0.3 SSW 9 9 5 5 1010.8 1010.6 0.0
27/11:00pm 15.5 15.7 14.7 95 0.5 SSW 7 9 4 5 1011.0 1010.8 0.0
27/10:30pm 16.1 16.0 15.0 93 0.6 SSW 9 11 5 6 1011.0 1010.8 0.0
27/10:00pm 16.4 16.2 14.6 89 1.0 S 9 11 5 6 1011.1 1010.9 0.0
27/09:30pm 17.3 17.5 14.8 85 1.4 SE 7 9 4 5 1010.8 1010.6 0.0
27/09:00pm 17.8 17.4 15.1 84 1.6 E 11 13 6 7 1010.3 1010.1 0.0
27/08:30pm 18.2 18.2 15.1 82 1.8 ESE 9 11 5 6 1010.3 1010.1 0.0
27/08:00pm 18.4 17.9 14.9 80 2.0 ESE 11 17 6 9 1010.3 1010.1 0.0
27/07:30pm 18.8 17.8 14.5 76 2.5 ESE 13 19 7 10 1009.7 1009.5 0.0
27/07:00pm 19.4 17.4 14.0 71 3.1 SE 17 22 9 12 1010.0 1009.8 0.0
27/06:30pm 20.7 18.2 13.6 64 4.1 SE 19 24 10 13 1009.9 1009.7 0.0
27/06:00pm 20.9 18.1 13.1 61 4.5 SE 20 26 11 14 1009.7 1009.5 0.0
27/05:30pm 22.1 20.2 14.2 61 4.6 SE 17 22 9 12 1009.5 1009.3 0.0
27/05:00pm 22.2 20.7 14.1 60 4.7 SE 15 24 8 13 1009.4 1009.2 0.0
27/04:30pm 23.2 22.0 15.0 60 4.9 ESE 15 24 8 13 1009.0 1008.8 0.0

Other Formats:

Comma delimited format used in spreadsheet applications
http://www.bom.gov.au/fwo/IDV60801/IDV60801.94912.axf

JavaScript Object Notation format (JSON) in row-major order
http://www.bom.gov.au/fwo/IDV60801/IDV60801.94912.json